Time;durP1;ratioP1;P1;durP2;ratioP2;P2;SDS_P1;SDS_P2;PMS_P1;PMS_P2;Temp;Humidity;BMP_temperature;BMP_pressure;BME280_temperature;BME280_humidity;BME280_pressure;Samples;Min_cycle;Max_cycle;Signal;HPM_P1;HPM_P2
2023/01/03 10:37:33;;;;;;;5.10;4.60;;;;;;;11.34;91.28;100221.84;5110029;28;20560;-85
2023/01/03 10:40:06;;;;;;;5.30;4.80;;;;;;;13.23;84.83;100234.97;5110013;28;39890;-84
2023/01/03 10:42:36;;;;;;;4.27;3.87;;;;;;;15.24;76.67;100245.97;5092496;28;40566;-85
2023/01/03 10:45:10;;;;;;;4.23;3.50;;;;;;;16.53;68.76;100263.78;5091777;28;41369;-84
2023/01/03 10:47:38;;;;;;;4.70;3.83;;;;;;;18.08;62.52;100245.16;5091607;28;42486;-84
2023/01/03 10:50:07;;;;;;;3.60;3.10;;;;;;;19.71;57.58;100290.25;5109738;28;40886;-86
2023/01/03 10:52:39;;;;;;;2.97;2.77;;;;;;;20.64;53.32;100293.66;5091933;28;40704;-86
2023/01/03 10:55:14;;;;;;;3.30;2.90;;;;;;;20.19;53.75;100284.69;5108866;28;42798;-85
2023/01/03 10:57:47;;;;;;;3.30;2.97;;;;;;;19.33;52.19;100292.31;5092140;28;42557;-86
2023/01/03 11:00:28;;;;;;;2.50;2.30;;;;;;;19.37;51.80;100302.72;5091454;28;40434;-85
2023/01/03 11:03:09;;;;;;;4.60;3.03;;;;;;;18.52;53.28;100266.13;5091776;28;40868;-85
2023/01/03 11:05:38;;;;;;;3.03;2.73;;;;;;;18.04;54.18;100289.28;5106557;28;42684;-85
2023/01/03 11:08:15;;;;;;;4.47;3.20;;;;;;;17.61;54.35;100288.66;5108777;28;41135;-85
2023/01/03 11:10:54;;;;;;;4.50;2.70;;;;;;;17.50;54.97;100281.38;5091874;28;39985;-86
2023/01/03 11:13:29;;;;;;;3.63;3.30;;;;;;;17.60;54.89;100262.84;5126044;27;40841;-86
2023/01/03 11:15:58;;;;;;;3.03;2.80;;;;;;;17.34;55.41;100259.28;5091498;28;41632;-86
2023/01/03 11:18:28;;;;;;;4.63;3.10;;;;;;;16.82;55.32;100244.03;5091559;28;41132;-84
2023/01/03 11:21:09;;;;;;;3.20;2.60;;;;;;;16.43;54.81;100257.31;5091310;28;40105;-83
2023/01/03 11:23:53;;;;;;;2.53;2.30;;;;;;;17.43;53.72;100264.00;5125875;27;41010;-85
2023/01/03 11:26:35;;;;;;;2.87;2.67;;;;;;;17.40;52.63;100258.88;5091196;28;41821;-86
2023/01/03 11:29:26;;;;;;;3.33;2.43;;;;;;;18.40;50.23;100268.84;5105890;28;41997;-86
2023/01/03 11:32:02;;;;;;;2.57;2.17;;;;;;;19.55;48.27;100284.34;5125473;27;39310;-85
2023/01/03 11:34:51;;;;;;;2.43;2.00;;;;;;;21.54;44.81;100296.91;5091253;28;40810;-86
2023/01/03 11:37:26;;;;;;;2.87;1.80;;;;;;;22.24;42.95;100304.34;5090927;28;42124;-85
2023/01/03 11:40:07;;;;;;;4.60;1.43;;;;;;;21.88;40.69;100329.09;5106099;28;42142;-85
2023/01/03 11:42:47;;;;;;;1.23;1.10;;;;;;;20.97;41.40;100308.00;5125305;27;38963;-87
2023/01/03 11:45:43;;;;;;;1.60;1.17;;;;;;;19.83;42.32;100309.09;5090793;28;43020;-85
2023/01/03 11:48:29;;;;;;;2.07;1.07;;;;;;;18.79;45.30;100276.66;5080871;28;42030;-86
2023/01/03 11:51:15;;;;;;;2.63;1.20;;;;;;;18.88;46.26;100267.09;5094407;28;42159;-86
2023/01/03 11:54:01;;;;;;;2.90;1.60;;;;;;;20.30;43.60;100287.38;5111456;28;40077;-85
2023/01/03 11:56:34;;;;;;;2.70;1.30;;;;;;;19.75;43.58;100295.41;5076692;28;41784;-86
2023/01/03 11:59:34;;;;;;;2.07;1.63;;;;;;;18.82;44.60;100287.19;5094162;28;42771;-85
2023/01/03 12:02:33;;;;;;;2.43;1.37;;;;;;;19.78;43.41;100289.81;5076707;28;40777;-86
2023/01/03 12:05:18;;;;;;;1.73;1.10;;;;;;;19.83;43.80;100293.81;5071374;28;39020;-86
2023/01/03 12:07:56;;;;;;;1.70;1.37;;;;;;;19.80;43.54;100282.44;5094161;28;41551;-87
2023/01/03 12:10:33;;;;;;;1.67;1.40;;;;;;;19.50;43.16;100302.69;5110669;28;42841;-85
2023/01/03 12:13:13;;;;;;;1.63;1.33;;;;;;;19.33;43.06;100286.94;5092326;28;42393;-85
2023/01/03 12:15:47;;;;;;;1.80;1.40;;;;;;;19.55;42.98;100289.72;5077052;28;38896;-84
2023/01/03 12:18:25;;;;;;;2.17;1.57;;;;;;;19.14;43.76;100265.13;5077073;28;40982;-86
2023/01/03 12:20:59;;;;;;;1.43;1.20;;;;;;;19.44;43.74;100294.19;5077462;28;43068;-86
2023/01/03 12:23:36;;;;;;;2.30;1.60;;;;;;;20.47;42.28;100304.91;5111091;28;42071;-86
2023/01/03 12:26:08;;;;;;;2.30;1.80;;;;;;;22.52;38.61;100306.28;5126631;27;40967;-86
2023/01/03 12:28:39;;;;;;;2.00;1.70;;;;;;;24.55;36.40;100311.69;5077158;28;41914;-83
2023/01/03 12:31:19;;;;;;;2.97;1.83;;;;;;;26.02;33.44;100325.75;5077113;28;41684;-86
2023/01/03 12:33:54;;;;;;;2.17;1.97;;;;;;;26.36;32.82;100336.69;5076704;28;41167;-85
2023/01/03 12:36:31;;;;;;;1.43;1.33;;;;;;;26.40;32.15;100336.22;5092655;28;40051;-86
2023/01/03 12:39:24;;;;;;;1.73;1.60;;;;;;;27.26;31.60;100322.44;5076787;28;43459;-86
2023/01/03 12:41:58;;;;;;;1.97;1.30;;;;;;;27.63;31.51;100316.56;5075953;28;44694;-86
2023/01/03 12:44:37;;;;;;;1.50;1.40;;;;;;;28.00;31.03;100326.91;5076838;28;43273;-85
2023/01/03 12:47:10;;;;;;;1.60;1.50;;;;;;;27.59;31.58;100311.63;5110039;28;42275;-86
2023/01/03 12:49:44;;;;;;;2.23;1.50;;;;;;;27.56;30.50;100295.66;5076910;28;40822;-86
2023/01/03 12:52:15;;;;;;;2.13;2.00;;;;;;;27.10;30.61;100306.09;5076341;28;41945;-87
2023/01/03 12:54:49;;;;;;;1.93;1.80;;;;;;;26.65;30.88;100314.59;5076586;28;41649;-86
2023/01/03 12:57:50;;;;;;;1.63;1.53;;;;;;;26.31;31.78;100303.72;5109699;28;40471;-87
2023/01/03 13:00:27;;;;;;;2.20;1.90;;;;;;;25.30;33.11;100284.25;5075110;28;41383;-86
2023/01/03 13:03:02;;;;;;;2.40;1.93;;;;;;;24.33;33.86;100296.69;5076070;28;43655;-84
2023/01/03 13:05:38;;;;;;;2.40;1.87;;;;;;;23.72;34.84;100272.75;5075830;28;42084;-87
2023/01/03 13:08:15;;;;;;;2.40;1.90;;;;;;;23.27;35.33;100275.16;5076330;28;38738;-87
2023/01/03 13:10:47;;;;;;;3.83;2.40;;;;;;;22.60;35.99;100250.75;5092929;28;41988;-86
2023/01/03 13:13:19;;;;;;;2.13;1.93;;;;;;;21.88;37.12;100264.34;5076156;28;41851;-86
2023/01/03 13:15:49;;;;;;;2.23;2.00;;;;;;;21.03;38.34;100249.06;5110274;28;40778;-86
2023/01/03 13:18:31;;;;;;;2.23;2.03;;;;;;;19.99;39.52;100250.47;5076803;28;38764;-87
2023/01/03 13:20:59;;;;;;;2.00;1.80;;;;;;;18.97;41.43;100210.88;5076450;28;40663;-86
2023/01/03 13:23:34;;;;;;;1.83;1.73;;;;;;;18.24;42.85;100197.53;5092841;28;42849;-86
2023/01/03 13:26:23;;;;;;;1.93;1.80;;;;;;;17.49;44.06;100193.94;5075832;28;42142;-86
2023/01/03 13:28:52;;;;;;;3.73;2.20;;;;;;;17.03;45.40;100206.09;5076029;28;40332;-86
2023/01/03 13:31:40;;;;;;;2.77;2.23;;;;;;;16.49;46.13;100190.03;5075619;28;40896;-86
2023/01/03 13:34:33;;;;;;;2.50;2.30;;;;;;;16.05;47.26;100196.47;5075930;28;42996;-84
2023/01/03 13:37:24;;;;;;;5.57;2.80;;;;;;;15.59;48.54;100187.78;5071150;28;43684;-86
2023/01/03 13:40:10;;;;;;;2.83;2.03;;;;;;;15.25;49.39;100172.94;5089973;28;40982;-85
2023/01/03 13:42:39;;;;;;;2.47;2.03;;;;;;;14.87;50.27;100161.91;5075689;28;41033;-84
2023/01/03 13:45:56;;;;;;;3.30;1.73;;;;;;;14.68;51.29;100161.28;5092339;28;41806;-85
2023/01/03 13:48:32;;;;;;;2.37;2.00;;;;;;;14.44;51.94;100168.03;5075684;28;41088;-84
2023/01/03 13:51:25;;;;;;;2.80;2.00;;;;;;;14.26;52.90;100161.91;5075379;28;39281;-84
2023/01/03 13:53:59;;;;;;;2.30;1.90;;;;;;;13.80;52.88;100113.03;5075660;28;41581;-86
2023/01/03 13:56:30;;;;;;;2.50;1.90;;;;;;;13.85;53.49;100149.09;5075336;28;43146;-84
2023/01/03 13:59:03;;;;;;;3.13;1.80;;;;;;;13.64;54.07;100145.81;5075674;28;41375;-83
2023/01/03 14:01:58;;;;;;;3.87;2.07;;;;;;;13.44;54.74;100154.03;5075685;28;39617;-85
2023/01/03 14:05:01;;;;;;;2.63;2.10;;;;;;;13.25;55.28;100154.13;5075377;28;40712;-85
2023/01/03 14:07:52;;;;;;;2.60;2.10;;;;;;;13.01;55.48;100150.06;5090263;28;42605;-86
2023/01/03 14:10:42;;;;;;;2.73;2.00;;;;;;;12.82;56.37;100138.69;5075419;28;41439;-85
2023/01/03 14:13:30;;;;;;;2.47;1.93;;;;;;;12.74;56.42;100152.34;5093177;28;40026;-85
2023/01/03 14:16:15;;;;;;;2.03;1.83;;;;;;;12.62;57.33;100146.78;5090691;28;41583;-84
2023/01/03 14:18:49;;;;;;;3.43;2.00;;;;;;;12.45;57.80;100143.19;5108915;28;41700;-84
2023/01/03 14:21:25;;;;;;;2.80;1.87;;;;;;;12.34;58.52;100142.88;5074908;28;42445;-85
2023/01/03 14:23:57;;;;;;;1.80;1.70;;;;;;;12.11;58.88;100135.16;5109610;28;38847;-84
2023/01/03 14:26:25;;;;;;;3.13;2.20;;;;;;;11.92;59.79;100124.53;5108696;28;42412;-85
2023/01/03 14:28:55;;;;;;;4.33;2.03;;;;;;;11.86;60.01;100138.13;5075208;28;43212;-84
2023/01/03 14:31:25;;;;;;;2.77;2.10;;;;;;;11.66;60.35;100128.38;5074825;28;41317;-85
2023/01/03 14:33:56;;;;;;;2.57;2.00;;;;;;;11.40;61.29;100104.84;5109006;28;38905;-86
2023/01/03 14:36:27;;;;;;;2.73;1.90;;;;;;;11.55;61.22;100141.31;5074642;28;40830;-84
2023/01/03 14:38:57;;;;;;;1.93;1.73;;;;;;;11.30;60.92;100120.34;5075663;28;41636;-84
2023/01/03 14:41:28;;;;;;;2.93;2.30;;;;;;;11.27;61.17;100135.50;5074701;28;41096;-85
2023/01/03 14:44:05;;;;;;;4.20;2.10;;;;;;;11.25;61.09;100156.78;5075811;28;39997;-86
2023/01/03 14:46:34;;;;;;;2.87;2.00;;;;;;;11.10;61.68;100147.75;5108952;28;41366;-85
2023/01/03 14:49:05;;;;;;;3.53;1.93;;;;;;;11.04;61.18;100158.63;5075165;28;42890;-85
2023/01/03 14:51:36;;;;;;;2.67;2.00;;;;;;;10.96;62.33;100152.78;5108913;28;41822;-86
2023/01/03 14:54:06;;;;;;;2.70;1.83;;;;;;;10.58;62.09;100119.13;5109281;28;38619;-85
2023/01/03 14:56:33;;;;;;;5.03;2.23;;;;;;;10.77;62.40;100159.78;5074828;28;40522;-86
2023/01/03 14:59:02;;;;;;;4.23;2.13;;;;;;;10.69;62.48;100169.88;5091944;28;43013;-85
2023/01/03 15:01:30;;;;;;;2.37;2.17;;;;;;;10.49;62.44;100148.66;5074763;28;42517;-86
2023/01/03 15:03:59;;;;;;;3.10;2.20;;;;;;;10.22;63.83;100119.72;5075014;28;40273;-87
2023/01/03 15:06:29;;;;;;;3.73;2.00;;;;;;;10.42;63.36;100167.44;5074635;28;40723;-85
2023/01/03 15:09:00;;;;;;;2.60;2.07;;;;;;;10.36;63.39;100175.66;5074663;28;41702;-84
2023/01/03 15:11:32;;;;;;;2.23;1.63;;;;;;;10.11;63.43;100147.53;5074582;28;41643;-84
2023/01/03 15:14:03;;;;;;;3.57;2.40;;;;;;;9.99;64.88;100117.13;5091933;28;40817;-84
2023/01/03 15:16:35;;;;;;;4.40;2.33;;;;;;;10.19;65.08;100156.06;5074460;28;41085;-85
2023/01/03 15:19:11;;;;;;;3.30;2.80;;;;;;;10.04;65.13;100160.13;5074566;28;43968;-87
2023/01/03 15:21:40;;;;;;;3.30;2.23;;;;;;;9.93;65.26;100151.75;5074258;28;42303;-86
2023/01/03 15:24:15;;;;;;;2.80;2.13;;;;;;;9.89;65.55;100161.59;5077707;28;39819;-87
2023/01/03 15:26:45;;;;;;;5.00;2.47;;;;;;;9.70;65.58;100147.34;5078195;28;41005;-85
2023/01/03 15:29:15;;;;;;;3.57;2.37;;;;;;;9.78;66.51;100168.22;5111986;28;41765;-86
2023/01/03 15:31:49;;;;;;;3.70;2.67;;;;;;;9.75;66.69;100168.34;5111975;28;41029;-85
2023/01/03 15:34:19;;;;;;;2.63;2.43;;;;;;;9.75;67.72;100168.34;5112221;28;38883;-85
2023/01/03 15:36:51;;;;;;;3.27;2.80;;;;;;;9.79;67.61;100184.03;5077178;28;41477;-85
2023/01/03 15:39:23;;;;;;;3.13;2.70;;;;;;;9.83;68.19;100179.50;5077724;28;41671;-85
2023/01/03 15:44:41;;;;;;;4.23;2.77;;;;;;;9.89;68.07;100188.03;5086452;28;39100;-85
2023/01/03 15:47:09;;;;;;;7.23;2.70;;;;;;;9.80;68.54;100176.97;5094017;28;43499;-84
2023/01/03 15:49:41;;;;;;;3.63;2.50;;;;;;;9.80;68.49;100180.47;5128905;28;42468;-83
2023/01/03 15:52:12;;;;;;;3.27;2.80;;;;;;;9.89;68.19;100197.81;5094884;28;41765;-85
2023/01/03 15:54:42;;;;;;;3.10;2.73;;;;;;;9.89;68.04;100205.75;5095110;28;39567;-84
2023/01/03 15:57:13;;;;;;;3.60;2.77;;;;;;;9.89;67.52;100208.38;5092370;28;41618;-84
2023/01/03 15:59:42;;;;;;;5.40;3.30;;;;;;;9.77;68.48;100187.69;5077384;28;41841;-86
2023/01/03 16:02:14;;;;;;;4.73;2.63;;;;;;;9.55;69.51;100154.09;5076921;28;42564;-84
2023/01/03 16:04:43;;;;;;;3.30;3.00;;;;;;;9.75;68.92;100187.75;5077343;28;38762;-84
2023/01/03 16:07:11;;;;;;;2.60;2.27;;;;;;;9.84;69.60;100197.97;5110694;28;41929;-85
2023/01/03 16:09:38;;;;;;;2.90;2.63;;;;;;;9.89;69.46;100203.09;5077568;28;42204;-85
2023/01/03 16:12:17;;;;;;;4.10;3.20;;;;;;;9.78;70.06;100178.78;5076588;28;41177;-84
2023/01/03 16:14:48;;;;;;;3.23;2.43;;;;;;;9.58;70.68;100156.63;5077416;28;39189;-84
2023/01/03 16:17:20;;;;;;;3.17;2.87;;;;;;;9.72;70.42;100172.84;5076615;28;41057;-84
2023/01/03 16:19:48;;;;;;;2.60;2.20;;;;;;;9.72;71.20;100175.47;5093635;28;43645;-84
2023/01/03 16:22:16;;;;;;;4.57;2.70;;;;;;;9.86;70.93;100203.19;5076270;28;41102;-84
2023/01/03 16:24:43;;;;;;;3.60;1.97;;;;;;;9.88;70.33;100211.94;5077209;28;39087;-83
2023/01/03 16:27:15;;;;;;;5.07;2.40;;;;;;;9.71;70.15;100184.34;5110331;28;42566;-84
2023/01/03 16:29:43;;;;;;;2.40;1.90;;;;;;;9.68;70.09;100165.06;5076955;28;41556;-84
2023/01/03 16:32:18;;;;;;;2.33;1.90;;;;;;;9.84;70.38;100183.88;5076618;28;42252;-84
2023/01/03 16:34:46;;;;;;;3.03;2.47;;;;;;;9.92;70.15;100209.09;5077109;28;40498;-84
2023/01/03 16:37:14;;;;;;;2.60;2.37;;;;;;;9.85;70.64;100201.47;5076442;28;40580;-84
2023/01/03 16:39:42;;;;;;;4.37;2.40;;;;;;;9.93;70.72;100216.13;5076750;28;43000;-83
2023/01/03 16:42:12;;;;;;;2.80;2.20;;;;;;;9.92;71.02;100209.09;5076165;28;43557;-85
2023/01/03 16:44:45;;;;;;;3.97;3.03;;;;;;;9.81;71.35;100194.56;5076520;28;39353;-84
2023/01/03 16:47:15;;;;;;;4.20;2.40;;;;;;;9.83;70.92;100198.03;5076701;28;41738;-84
